Time;durP1;ratioP1;P1;durP2;ratioP2;P2;SDS_P1;SDS_P2;PMS_P1;PMS_P2;Temp;Humidity;BMP_temperature;BMP_pressure;BME280_temperature;BME280_humidity;BME280_pressure;Samples;Min_cycle;Max_cycle;Signal;HPM_P1;HPM_P2
2021/09/10 00:00:49;;;;;;;21.23;16.27;;;19.00;99.90;;;;;;5013898;28;20025;-78
2021/09/10 00:03:15;;;;;;;23.85;16.45;;;19.00;99.90;;;;;;5013171;28;20483;-78
2021/09/10 00:05:40;;;;;;;23.83;16.58;;;18.90;99.90;;;;;;5012991;28;20030;-78
2021/09/10 00:08:06;;;;;;;18.60;16.65;;;19.00;99.90;;;;;;5013857;28;20479;-78
2021/09/10 00:10:32;;;;;;;19.08;15.98;;;19.00;99.90;;;;;;5013180;28;20479;-78
2021/09/10 00:12:59;;;;;;;18.92;16.15;;;18.90;99.90;;;;;;5013260;28;20076;-79
2021/09/10 00:15:25;;;;;;;20.40;16.58;;;19.00;99.90;;;;;;5014070;28;20026;-79
2021/09/10 00:17:51;;;;;;;18.38;15.82;;;18.90;99.90;;;;;;5013368;28;20024;-78
2021/09/10 00:20:16;;;;;;;18.98;16.42;;;18.90;99.90;;;;;;5013139;28;20033;-78
2021/09/10 00:22:42;;;;;;;21.17;15.45;;;18.90;99.90;;;;;;5012730;28;20030;-78
2021/09/10 00:25:08;;;;;;;17.08;15.20;;;18.90;99.90;;;;;;5012399;28;20476;-79
2021/09/10 00:27:34;;;;;;;18.58;16.00;;;18.90;99.90;;;;;;5012610;28;20656;-79
2021/09/10 00:30:00;;;;;;;21.88;15.77;;;18.90;99.90;;;;;;5012811;28;20026;-78
2021/09/10 00:32:27;;;;;;;23.27;14.82;;;18.90;99.90;;;;;;5014795;28;20088;-78
2021/09/10 00:34:52;;;;;;;18.95;15.02;;;18.90;99.90;;;;;;5013546;28;20172;-78
2021/09/10 00:37:18;;;;;;;20.40;14.90;;;18.90;99.90;;;;;;5014146;28;20053;-78
2021/09/10 00:39:44;;;;;;;17.17;13.13;;;18.90;99.90;;;;;;5014146;28;20372;-78
2021/09/10 00:42:10;;;;;;;18.23;13.73;;;18.90;99.90;;;;;;5013546;28;20026;-78
2021/09/10 00:44:35;;;;;;;16.48;12.95;;;18.90;99.90;;;;;;5015321;28;20435;-78
2021/09/10 00:47:01;;;;;;;17.92;13.38;;;19.00;99.90;;;;;;5013176;28;20548;-78
2021/09/10 00:49:27;;;;;;;15.45;12.27;;;19.00;99.90;;;;;;5013475;28;20033;-78
2021/09/10 00:51:52;;;;;;;18.65;12.32;;;19.00;99.90;;;;;;5012213;28;20061;-78
2021/09/10 00:54:18;;;;;;;12.93;11.55;;;19.00;99.90;;;;;;5014022;28;20498;-78
2021/09/10 00:56:44;;;;;;;14.77;11.27;;;19.00;99.90;;;;;;5012602;28;20026;-78
2021/09/10 00:59:10;;;;;;;14.15;11.07;;;19.00;99.90;;;;;;5014923;28;20026;-79
2021/09/10 01:01:37;;;;;;;18.50;11.68;;;19.00;99.90;;;;;;5015329;28;20026;-78
2021/09/10 01:04:03;;;;;;;16.60;11.15;;;19.00;99.90;;;;;;5014889;28;20502;-78
2021/09/10 01:06:29;;;;;;;15.15;11.15;;;19.10;99.90;;;;;;5015285;28;20026;-78
2021/09/10 01:08:55;;;;;;;18.77;10.95;;;19.10;99.90;;;;;;5014434;28;20037;-78
2021/09/10 01:11:22;;;;;;;16.80;10.90;;;19.10;99.90;;;;;;5014598;28;20026;-78
2021/09/10 01:13:50;;;;;;;13.15;10.02;;;19.10;99.90;;;;;;5014908;28;20035;-78
2021/09/10 01:16:16;;;;;;;14.63;11.40;;;19.00;99.90;;;;;;5014563;28;20022;-78
2021/09/10 01:18:42;;;;;;;12.55;10.68;;;19.00;99.90;;;;;;5015015;28;20434;-78
2021/09/10 01:21:07;;;;;;;15.90;11.13;;;18.90;99.90;;;;;;5012679;28;20092;-78
2021/09/10 01:23:33;;;;;;;13.60;10.57;;;18.90;99.90;;;;;;5012755;28;20046;-79
2021/09/10 01:25:59;;;;;;;13.45;10.80;;;18.90;99.90;;;;;;5014511;28;20026;-79
2021/09/10 01:28:26;;;;;;;12.60;9.80;;;18.80;99.90;;;;;;5014555;28;20057;-79
2021/09/10 01:30:51;;;;;;;16.40;10.88;;;18.80;99.90;;;;;;5013272;28;20029;-79
2021/09/10 01:33:17;;;;;;;13.25;10.65;;;18.80;99.90;;;;;;5015795;28;20116;-79
2021/09/10 01:35:42;;;;;;;14.02;9.95;;;18.80;99.90;;;;;;5017141;28;20056;-78
2021/09/10 01:38:09;;;;;;;11.70;10.02;;;18.80;99.90;;;;;;5016730;28;20034;-78
2021/09/10 01:40:36;;;;;;;13.57;10.55;;;18.80;99.90;;;;;;5018398;28;20018;-78
2021/09/10 01:43:02;;;;;;;17.50;10.68;;;18.80;99.90;;;;;;5017929;28;20037;-78
2021/09/10 01:45:28;;;;;;;15.85;10.07;;;18.80;99.90;;;;;;5017107;28;20036;-78
2021/09/10 01:47:54;;;;;;;13.85;10.65;;;18.90;99.90;;;;;;5017878;28;20110;-79
2021/09/10 01:50:21;;;;;;;17.58;11.07;;;18.80;99.90;;;;;;5017793;28;20037;-79
2021/09/10 01:52:46;;;;;;;15.68;11.00;;;18.90;99.90;;;;;;5016614;28;20052;-79
2021/09/10 01:55:13;;;;;;;13.18;11.07;;;18.80;99.90;;;;;;5021146;28;20078;-79
2021/09/10 01:57:44;;;;;;;15.40;10.55;;;18.80;99.90;;;;;;5019829;28;20025;-79
2021/09/10 02:00:10;;;;;;;13.18;10.65;;;18.80;99.90;;;;;;5017426;28;20030;-79
2021/09/10 02:02:36;;;;;;;13.32;10.63;;;18.70;99.90;;;;;;5018721;28;20036;-79
2021/09/10 02:05:02;;;;;;;14.32;10.75;;;18.70;99.90;;;;;;5020071;28;20109;-79
2021/09/10 02:07:27;;;;;;;14.48;10.13;;;18.60;99.90;;;;;;5018169;28;20077;-79
2021/09/10 02:09:53;;;;;;;12.38;10.40;;;18.60;99.90;;;;;;5017269;28;20026;-79
2021/09/10 02:12:19;;;;;;;20.85;10.07;;;18.60;99.90;;;;;;5015993;28;20084;-78
2021/09/10 02:14:44;;;;;;;14.70;10.27;;;18.50;99.90;;;;;;5017126;28;20399;-78
2021/09/10 02:17:10;;;;;;;12.43;11.02;;;18.50;99.90;;;;;;5016092;28;20029;-78
2021/09/10 02:19:35;;;;;;;16.38;9.52;;;18.50;99.90;;;;;;5015199;28;20036;-78
2021/09/10 02:22:02;;;;;;;14.20;9.85;;;18.50;99.90;;;;;;5015155;28;20394;-78
2021/09/10 02:24:28;;;;;;;14.20;9.55;;;18.60;99.90;;;;;;5016159;28;20379;-78
2021/09/10 02:26:54;;;;;;;11.52;9.38;;;18.50;99.90;;;;;;5016897;28;20061;-78
2021/09/10 02:29:19;;;;;;;11.30;9.57;;;18.50;99.90;;;;;;5015221;28;20029;-78
2021/09/10 02:31:45;;;;;;;14.25;9.35;;;18.50;99.90;;;;;;5015128;28;20033;-78
2021/09/10 02:34:11;;;;;;;12.15;8.95;;;18.50;99.90;;;;;;5015272;28;20026;-78
2021/09/10 02:36:37;;;;;;;12.15;9.60;;;18.40;99.90;;;;;;5015625;28;20133;-78
2021/09/10 02:39:08;;;;;;;11.25;9.27;;;18.40;99.90;;;;;;5015521;28;20029;-79
2021/09/10 02:41:35;;;;;;;12.93;9.63;;;18.40;99.90;;;;;;5015374;28;20033;-79
2021/09/10 02:44:02;;;;;;;14.95;9.45;;;18.30;99.90;;;;;;5016642;28;20026;-79
2021/09/10 02:46:28;;;;;;;13.10;8.90;;;18.30;99.90;;;;;;5015676;28;20057;-79
2021/09/10 02:48:54;;;;;;;12.27;8.80;;;18.30;99.90;;;;;;5015768;28;20057;-78
2021/09/10 02:51:19;;;;;;;12.88;9.00;;;18.30;99.90;;;;;;5015225;28;20026;-78
2021/09/10 02:53:45;;;;;;;9.98;8.95;;;18.30;99.90;;;;;;5014627;28;20577;-78
2021/09/10 02:56:11;;;;;;;12.50;8.82;;;18.30;99.90;;;;;;5015716;28;20074;-78
2021/09/10 02:58:36;;;;;;;11.30;8.77;;;18.30;99.90;;;;;;5014074;28;20137;-79
2021/09/10 03:01:02;;;;;;;15.20;8.90;;;18.30;99.90;;;;;;5014255;28;20022;-79
2021/09/10 03:03:29;;;;;;;12.85;8.75;;;18.30;99.90;;;;;;5013890;28;20060;-79
2021/09/10 03:05:55;;;;;;;11.25;8.77;;;18.30;99.90;;;;;;5014572;28;20034;-78
2021/09/10 03:08:21;;;;;;;13.93;8.98;;;18.30;99.90;;;;;;5014582;28;20028;-79
2021/09/10 03:10:47;;;;;;;11.05;8.68;;;18.20;99.90;;;;;;5014055;28;20034;-78
2021/09/10 03:13:13;;;;;;;14.20;8.77;;;18.20;99.90;;;;;;5013943;28;20093;-78
2021/09/10 03:15:38;;;;;;;12.07;8.75;;;18.30;99.90;;;;;;5013962;28;20026;-78
2021/09/10 03:18:04;;;;;;;12.10;9.13;;;18.30;99.90;;;;;;5013598;28;20091;-78
2021/09/10 03:20:30;;;;;;;12.48;8.65;;;18.30;99.90;;;;;;5015023;28;20105;-78
2021/09/10 03:22:56;;;;;;;11.90;8.45;;;18.40;99.90;;;;;;5013809;28;20022;-78
2021/09/10 03:25:22;;;;;;;11.23;8.63;;;18.30;99.90;;;;;;5014218;28;20112;-78
2021/09/10 03:27:48;;;;;;;13.45;8.98;;;18.30;99.90;;;;;;5013837;28;20115;-78
2021/09/10 03:30:14;;;;;;;10.57;7.90;;;18.30;99.90;;;;;;5015280;28;20506;-78
2021/09/10 03:32:41;;;;;;;11.00;7.95;;;18.40;99.90;;;;;;5014030;28;20057;-78
2021/09/10 03:35:07;;;;;;;10.88;8.02;;;18.30;99.90;;;;;;5015555;28;20044;-78
2021/09/10 03:37:33;;;;;;;10.63;7.68;;;18.40;99.90;;;;;;5015565;28;20030;-78
2021/09/10 03:39:59;;;;;;;10.00;7.70;;;18.40;99.90;;;;;;5015010;28;20026;-78
2021/09/10 03:42:25;;;;;;;10.85;8.07;;;18.40;99.90;;;;;;5014261;28;20022;-78
2021/09/10 03:44:51;;;;;;;13.00;8.20;;;18.40;99.90;;;;;;5013078;28;20052;-78
2021/09/10 03:47:17;;;;;;;9.65;7.85;;;18.40;99.90;;;;;;5014573;28;20033;-78
2021/09/10 03:49:42;;;;;;;11.20;7.28;;;18.40;99.90;;;;;;5013362;28;20038;-78
2021/09/10 03:52:08;;;;;;;11.65;8.00;;;18.40;99.90;;;;;;5014271;28;20026;-78
2021/09/10 03:54:33;;;;;;;12.20;8.30;;;18.40;99.90;;;;;;5014920;28;20364;-78
2021/09/10 03:56:59;;;;;;;12.57;8.50;;;18.40;99.90;;;;;;5011974;28;20026;-78
2021/09/10 03:59:25;;;;;;;11.05;8.13;;;18.40;99.90;;;;;;5013039;28;20026;-78
2021/09/10 04:01:51;;;;;;;9.77;8.77;;;18.40;99.90;;;;;;5012677;28;20022;-78
2021/09/10 04:04:17;;;;;;;14.60;9.13;;;18.40;99.90;;;;;;5012204;28;20490;-78
2021/09/10 04:06:42;;;;;;;13.20;9.48;;;18.40;99.90;;;;;;5013816;28;20022;-78
2021/09/10 04:09:08;;;;;;;12.35;9.32;;;18.40;99.90;;;;;;5011835;28;20040;-78
2021/09/10 04:11:36;;;;;;;12.23;9.38;;;18.30;99.90;;;;;;5013304;28;20566;-78
2021/09/10 04:14:01;;;;;;;14.77;9.68;;;18.30;99.90;;;;;;5013738;28;20021;-78
2021/09/10 04:16:27;;;;;;;14.60;9.13;;;18.30;99.90;;;;;;5012436;28;20034;-78
2021/09/10 04:18:53;;;;;;;12.50;9.27;;;18.30;99.90;;;;;;5012444;28;20080;-78
2021/09/10 04:21:19;;;;;;;14.95;9.15;;;18.40;99.90;;;;;;5013730;28;20026;-78
2021/09/10 04:23:44;;;;;;;12.13;9.45;;;18.40;99.90;;;;;;5012554;28;20022;-78
2021/09/10 04:26:11;;;;;;;13.25;8.90;;;18.50;99.90;;;;;;5013440;28;20022;-78
2021/09/10 04:28:37;;;;;;;12.88;9.00;;;18.40;99.90;;;;;;5013096;28;20193;-78
2021/09/10 04:31:03;;;;;;;14.45;8.52;;;18.40;99.90;;;;;;5012216;28;20022;-78
2021/09/10 04:33:28;;;;;;;11.95;8.27;;;18.40;99.90;;;;;;5012431;28;20099;-77
2021/09/10 04:35:54;;;;;;;10.05;8.38;;;18.40;99.90;;;;;;5013917;28;20033;-78
2021/09/10 04:38:20;;;;;;;12.27;8.52;;;18.30;99.90;;;;;;5012969;28;20037;-78
2021/09/10 04:40:45;;;;;;;14.85;8.75;;;18.30;99.90;;;;;;5012667;28;20032;-78
2021/09/10 04:43:11;;;;;;;10.93;9.07;;;18.20;99.90;;;;;;5011367;28;20021;-79
2021/09/10 04:45:37;;;;;;;13.77;9.55;;;18.20;99.90;;;;;;5011568;28;20475;-78
2021/09/10 04:48:02;;;;;;;13.82;9.25;;;18.30;99.90;;;;;;5012023;28;20450;-78
2021/09/10 04:50:29;;;;;;;11.98;9.02;;;18.40;99.90;;;;;;5012263;28;20128;-78
2021/09/10 04:52:54;;;;;;;11.80;8.52;;;18.40;99.90;;;;;;5011975;28;20133;-78
2021/09/10 04:55:20;;;;;;;10.75;9.10;;;18.50;99.90;;;;;;5013797;28;20049;-78
2021/09/10 04:57:46;;;;;;;14.55;9.32;;;18.40;99.90;;;;;;5014078;28;20506;-78
2021/09/10 05:00:13;;;;;;;11.65;9.65;;;18.40;99.90;;;;;;5012531;28;20097;-79
2021/09/10 05:02:41;;;;;;;12.05;9.57;;;18.40;99.90;;;;;;5012154;28;20026;-78
2021/09/10 05:05:08;;;;;;;18.05;10.13;;;18.30;99.90;;;;;;5011635;28;20053;-78
2021/09/10 05:07:34;;;;;;;14.52;10.05;;;18.30;99.90;;;;;;5015319;28;20026;-78
2021/09/10 05:09:59;;;;;;;14.13;9.60;;;18.40;99.90;;;;;;5016194;28;20025;-78
2021/09/10 05:12:25;;;;;;;14.45;9.68;;;18.40;99.90;;;;;;5015830;28;20026;-78
2021/09/10 05:14:52;;;;;;;10.93;8.77;;;18.50;99.90;;;;;;5015466;28;20475;-78
2021/09/10 05:17:21;;;;;;;13.93;8.73;;;18.50;99.90;;;;;;5015619;28;20022;-78
2021/09/10 05:19:47;;;;;;;14.13;9.23;;;18.50;99.90;;;;;;5015847;28;20025;-78
2021/09/10 05:22:14;;;;;;;9.88;8.75;;;18.50;99.90;;;;;;5017012;28;20029;-78
2021/09/10 05:24:40;;;;;;;16.85;9.38;;;18.60;99.90;;;;;;5016129;28;20025;-78
2021/09/10 05:27:06;;;;;;;10.80;8.95;;;18.60;99.90;;;;;;5018563;28;20037;-79
2021/09/10 05:29:32;;;;;;;11.15;8.90;;;18.40;99.90;;;;;;5018222;28;20026;-79
2021/09/10 05:31:58;;;;;;;10.43;8.80;;;18.40;99.90;;;;;;5018427;28;20094;-79
2021/09/10 05:34:23;;;;;;;11.38;8.90;;;18.40;99.90;;;;;;5018716;28;20098;-78
2021/09/10 05:36:49;;;;;;;14.25;8.95;;;18.40;99.90;;;;;;5018752;28;20026;-78
2021/09/10 05:39:15;;;;;;;13.18;9.50;;;18.30;99.90;;;;;;5020301;28;20426;-78
2021/09/10 05:41:40;;;;;;;11.45;8.95;;;18.30;99.90;;;;;;5026802;28;20025;-78
2021/09/10 05:44:06;;;;;;;14.80;9.38;;;18.30;99.90;;;;;;5020369;28;20068;-78
2021/09/10 05:46:32;;;;;;;13.93;9.80;;;18.30;99.90;;;;;;5012683;28;20487;-78
2021/09/10 05:48:58;;;;;;;12.90;10.00;;;18.30;99.90;;;;;;5011774;28;20040;-78
2021/09/10 05:51:24;;;;;;;10.55;9.45;;;18.30;99.90;;;;;;5012991;28;20128;-78
2021/09/10 05:53:50;;;;;;;14.27;10.00;;;18.20;99.90;;;;;;5046934;28;20085;-78
2021/09/10 05:56:15;;;;;;;14.18;9.23;;;18.20;99.90;;;;;;5047685;28;20026;-78
2021/09/10 05:58:41;;;;;;;15.32;9.43;;;18.20;99.90;;;;;;5010162;28;20589;-78
2021/09/10 06:01:08;;;;;;;12.48;9.77;;;18.10;99.90;;;;;;5014651;28;20399;-78
2021/09/10 06:03:34;;;;;;;15.00;9.73;;;18.10;99.90;;;;;;5012122;28;20029;-79
2021/09/10 06:06:09;;;;;;;13.00;9.63;;;18.10;99.90;;;;;;5018162;28;20580;-79
2021/09/10 06:08:37;;;;;;;14.10;8.75;;;18.20;99.90;;;;;;5017658;28;20033;-80
2021/09/10 06:11:04;;;;;;;15.55;9.90;;;18.20;99.90;;;;;;5011094;28;20290;-80
2021/09/10 06:13:30;;;;;;;11.40;9.20;;;18.30;99.90;;;;;;5011891;28;20026;-79
2021/09/10 06:15:56;;;;;;;14.75;8.80;;;18.30;99.90;;;;;;4999209;28;20034;-80
2021/09/10 06:18:21;;;;;;;10.50;8.02;;;18.40;99.90;;;;;;5013551;28;20022;-82
2021/09/10 06:20:47;;;;;;;11.00;8.32;;;18.40;99.90;;;;;;5009823;28;20030;-81
2021/09/10 06:23:13;;;;;;;15.35;9.15;;;18.40;99.90;;;;;;4997724;28;20054;-84
2021/09/10 06:25:39;;;;;;;10.35;8.27;;;18.50;99.90;;;;;;4996084;28;20030;-80
2021/09/10 06:28:05;;;;;;;12.70;8.70;;;18.50;99.90;;;;;;5009681;28;20476;-83
2021/09/10 06:30:31;;;;;;;14.30;8.43;;;18.60;99.90;;;;;;4995126;28;20090;-81
2021/09/10 06:32:57;;;;;;;10.57;8.65;;;18.70;99.90;;;;;;5013545;28;20026;-83
2021/09/10 06:35:23;;;;;;;12.88;8.32;;;18.80;99.90;;;;;;5010252;28;20029;-79
2021/09/10 06:37:49;;;;;;;12.50;8.30;;;18.80;99.90;;;;;;4993595;28;20588;-78
2021/09/10 06:40:15;;;;;;;14.00;8.05;;;18.90;99.90;;;;;;5000195;28;20029;-78
2021/09/10 06:42:42;;;;;;;12.30;7.80;;;19.00;99.90;;;;;;5007837;28;20053;-79
2021/09/10 06:45:09;;;;;;;10.35;7.65;;;19.20;99.90;;;;;;5007261;28;20032;-79
2021/09/10 06:47:35;;;;;;;9.52;7.15;;;19.10;99.90;;;;;;5011534;28;20021;-79
2021/09/10 06:50:02;;;;;;;9.27;7.40;;;19.10;99.90;;;;;;5009302;28;20030;-78
2021/09/10 06:52:28;;;;;;;10.95;7.78;;;19.10;99.90;;;;;;5009815;28;20042;-80
2021/09/10 06:54:54;;;;;;;12.40;7.97;;;19.20;99.90;;;;;;5004339;28;20391;-79
2021/09/10 06:57:20;;;;;;;11.20;8.02;;;19.20;99.90;;;;;;5010113;28;20022;-79
2021/09/10 06:59:45;;;;;;;9.82;7.13;;;19.20;99.90;;;;;;5004857;28;20033;-79
2021/09/10 07:02:11;;;;;;;13.48;7.40;;;19.20;99.90;;;;;;5003611;28;20468;-79
2021/09/10 07:04:37;;;;;;;9.32;7.25;;;19.00;99.90;;;;;;5015911;28;20018;-79
2021/09/10 07:07:03;;;;;;;13.73;8.63;;;18.90;99.90;;;;;;5012674;28;20022;-83
2021/09/10 07:09:31;;;;;;;13.68;8.65;;;18.90;99.90;;;;;;5016584;28;20048;-81
2021/09/10 07:11:57;;;;;;;12.60;8.63;;;18.90;99.90;;;;;;5011376;28;20030;-80
2021/09/10 07:14:23;;;;;;;11.73;7.70;;;19.00;99.90;;;;;;5012863;28;20021;-80
2021/09/10 07:16:48;;;;;;;8.40;7.53;;;19.00;99.90;;;;;;5009294;28;20119;-79
2021/09/10 07:19:14;;;;;;;11.13;7.60;;;19.10;99.90;;;;;;5018184;28;20026;-79
2021/09/10 07:21:48;;;;;;;10.30;6.85;;;19.30;99.90;;;;;;5002932;28;20034;-79
2021/09/10 07:24:14;;;;;;;11.63;7.00;;;19.40;99.90;;;;;;4992422;28;20025;-79
2021/09/10 07:26:40;;;;;;;13.43;7.28;;;19.40;99.90;;;;;;4985100;28;20320;-78
2021/09/10 07:29:06;;;;;;;18.17;6.90;;;19.50;99.90;;;;;;4991273;28;20125;-79
2021/09/10 07:31:32;;;;;;;9.57;6.38;;;19.70;99.90;;;;;;5007914;28;20057;-79
2021/09/10 07:33:58;;;;;;;12.10;7.10;;;19.80;99.90;;;;;;4996131;28;20038;-79
2021/09/10 07:36:23;;;;;;;12.93;6.72;;;19.90;99.90;;;;;;4999662;28;20156;-79
2021/09/10 07:38:49;;;;;;;12.88;6.80;;;20.00;99.90;;;;;;5000509;28;20137;-79
2021/09/10 07:41:15;;;;;;;11.48;6.90;;;20.20;99.90;;;;;;5005760;28;20022;-80
2021/09/10 07:43:42;;;;;;;9.43;6.25;;;20.30;99.90;;;;;;5005606;28;20030;-79
2021/09/10 07:46:08;;;;;;;12.07;6.47;;;20.40;99.90;;;;;;5005333;28;20204;-79
2021/09/10 07:48:33;;;;;;;8.85;6.00;;;20.50;99.90;;;;;;5005542;28;20030;-79
2021/09/10 07:50:59;;;;;;;9.88;6.75;;;20.60;99.90;;;;;;5001981;28;20053;-78
2021/09/10 07:53:25;;;;;;;12.70;7.07;;;20.60;99.90;;;;;;5014570;28;20178;-78
2021/09/10 07:55:51;;;;;;;9.25;6.10;;;20.40;99.90;;;;;;4993091;28;20044;-78
2021/09/10 07:58:17;;;;;;;8.07;6.28;;;20.50;99.90;;;;;;4997188;28;20022;-78
2021/09/10 08:00:43;;;;;;;9.50;6.75;;;20.60;99.90;;;;;;5003684;28;20559;-78
2021/09/10 08:03:09;;;;;;;12.50;6.35;;;20.70;99.90;;;;;;5007103;28;20069;-78
2021/09/10 08:05:36;;;;;;;7.53;6.57;;;20.70;99.90;;;;;;5008495;28;20487;-80
2021/09/10 08:08:02;;;;;;;9.90;7.40;;;20.60;99.90;;;;;;5002776;28;20089;-80
2021/09/10 08:10:32;;;;;;;11.27;6.90;;;20.50;99.90;;;;;;5009672;28;20044;-85
2021/09/10 08:12:59;;;;;;;11.90;6.72;;;20.40;99.90;;;;;;5003114;28;20065;-81
2021/09/10 08:15:25;;;;;;;11.18;7.07;;;20.30;99.90;;;;;;5007713;28;20030;-79
2021/09/10 08:17:50;;;;;;;9.45;6.93;;;20.20;99.90;;;;;;5006130;28;20361;-77
2021/09/10 08:20:17;;;;;;;12.82;8.18;;;20.10;99.90;;;;;;5002387;28;20467;-80
2021/09/10 08:22:43;;;;;;;12.88;7.72;;;20.10;99.90;;;;;;5006157;28;20036;-82
2021/09/10 08:25:10;;;;;;;9.93;8.18;;;20.20;99.90;;;;;;5011219;28;20026;-83
2021/09/10 08:27:37;;;;;;;11.32;7.88;;;20.20;99.90;;;;;;5008840;28;20848;-83
2021/09/10 08:30:04;;;;;;;16.20;7.70;;;20.10;99.90;;;;;;5007002;28;20030;-78
2021/09/10 08:32:30;;;;;;;13.25;7.90;;;20.00;99.90;;;;;;4998194;28;20033;-78
2021/09/10 08:34:56;;;;;;;13.63;7.50;;;20.10;99.90;;;;;;5006577;28;20566;-79
2021/09/10 08:37:22;;;;;;;12.13;7.28;;;20.10;99.90;;;;;;5001675;28;20141;-79
2021/09/10 08:39:48;;;;;;;9.98;7.80;;;20.20;99.90;;;;;;5001428;28;20088;-79
2021/09/10 08:42:16;;;;;;;11.55;7.93;;;20.20;99.90;;;;;;5007216;28;20049;-79
2021/09/10 08:44:43;;;;;;;13.10;7.20;;;20.10;99.90;;;;;;5008402;28;20052;-79
2021/09/10 08:47:09;;;;;;;11.90;8.10;;;20.20;99.90;;;;;;5008984;28;20030;-80
2021/09/10 08:49:35;;;;;;;14.23;7.95;;;20.20;99.90;;;;;;5010192;28;20380;-80
2021/09/10 08:52:01;;;;;;;14.70;8.52;;;20.30;99.90;;;;;;5004162;28;20088;-79
2021/09/10 08:54:27;;;;;;;12.95;8.48;;;20.20;99.90;;;;;;5009710;28;20053;-79
2021/09/10 08:56:53;;;;;;;13.38;8.25;;;20.20;99.90;;;;;;5007447;28;20034;-79
2021/09/10 08:59:21;;;;;;;13.65;7.70;;;20.20;99.90;;;;;;5008894;28;20022;-79
2021/09/10 09:01:50;;;;;;;11.52;7.88;;;20.10;99.90;;;;;;4997951;28;20072;-79
2021/09/10 09:04:17;;;;;;;14.75;8.65;;;20.10;99.90;;;;;;5009402;28;20026;-79
2021/09/10 09:06:45;;;;;;;12.13;7.72;;;20.10;99.90;;;;;;5005176;28;20030;-78
2021/09/10 09:09:11;;;;;;;11.13;8.80;;;20.10;99.90;;;;;;5008870;28;20026;-80
2021/09/10 09:11:37;;;;;;;11.43;8.55;;;20.10;99.90;;;;;;5005778;28;20041;-79
2021/09/10 09:14:04;;;;;;;12.10;8.20;;;20.20;99.90;;;;;;5012527;28;20079;-79
2021/09/10 09:16:30;;;;;;;12.23;8.43;;;20.10;99.90;;;;;;5024574;28;20131;-79
2021/09/10 09:19:05;;;;;;;19.42;8.40;;;20.20;99.90;;;;;;5005494;28;20461;-80
2021/09/10 09:21:38;;;;;;;9.00;7.70;;;20.20;99.90;;;;;;5002167;28;20474;-79
2021/09/10 09:24:13;;;;;;;11.63;8.48;;;20.30;99.90;;;;;;5023401;28;20033;-80
2021/09/10 09:26:40;;;;;;;13.18;9.48;;;20.20;99.90;;;;;;5006894;28;20468;-79
2021/09/10 09:29:13;;;;;;;10.15;8.85;;;20.00;99.90;;;;;;4999671;28;20022;-79
2021/09/10 09:31:40;;;;;;;14.48;9.00;;;20.00;99.90;;;;;;4998801;28;20384;-78
2021/09/10 09:34:07;;;;;;;12.57;8.38;;;20.10;99.90;;;;;;5005385;28;20085;-79
2021/09/10 09:36:34;;;;;;;13.50;9.15;;;20.10;99.90;;;;;;5007401;28;20010;-79
2021/09/10 09:39:09;;;;;;;11.05;9.05;;;20.10;99.90;;;;;;5012941;28;20034;-79
2021/09/10 09:41:42;;;;;;;13.13;8.18;;;20.20;99.90;;;;;;4991699;28;20033;-78
2021/09/10 09:44:14;;;;;;;9.50;8.10;;;20.20;99.90;;;;;;4993273;28;20030;-78
2021/09/10 09:46:41;;;;;;;13.82;8.13;;;20.30;99.90;;;;;;4998536;28;20384;-80
2021/09/10 09:49:13;;;;;;;10.77;8.18;;;20.60;99.90;;;;;;5012158;28;20006;-83
2021/09/10 09:52:02;;;;;;;14.48;7.35;;;20.90;99.90;;;;;;5001142;28;20042;-81
2021/09/10 09:54:28;;;;;;;10.55;7.88;;;21.00;99.90;;;;;;5008269;28;20141;-80
2021/09/10 09:56:55;;;;;;;14.25;8.60;;;20.90;99.90;;;;;;5028134;28;20117;-81
2021/09/10 09:59:21;;;;;;;9.00;7.82;;;20.90;99.90;;;;;;5014599;28;20100;-81
2021/09/10 10:01:47;;;;;;;12.07;7.57;;;21.00;99.90;;;;;;5015992;28;20108;-80
2021/09/10 10:04:13;;;;;;;12.02;8.20;;;21.10;99.90;;;;;;5010155;28;20046;-78
2021/09/10 10:06:42;;;;;;;11.45;7.68;;;21.00;99.90;;;;;;5010379;28;20190;-79
2021/09/10 10:09:21;;;;;;;10.57;8.23;;;21.00;99.90;;;;;;4996529;28;20577;-79
2021/09/10 10:12:06;;;;;;;13.60;8.60;;;21.10;99.90;;;;;;5013134;28;20034;-80
2021/09/10 10:14:39;;;;;;;13.60;8.85;;;21.10;99.90;;;;;;5013909;28;20022;-79
2021/09/10 10:17:25;;;;;;;10.30;8.35;;;20.80;99.90;;;;;;5011775;28;20080;-79
2021/09/10 10:19:50;;;;;;;11.77;8.98;;;20.90;99.90;;;;;;5006766;28;20680;-80
2021/09/10 10:22:35;;;;;;;9.70;8.57;;;21.00;99.90;;;;;;5012171;28;20037;-82
2021/09/10 10:25:04;;;;;;;11.63;9.10;;;21.10;99.90;;;;;;5008728;28;20562;-83
2021/09/10 10:27:45;;;;;;;13.15;8.73;;;21.20;99.90;;;;;;5003996;28;20033;-83
2021/09/10 10:30:18;;;;;;;11.55;9.18;;;21.20;99.90;;;;;;5007880;28;20058;-83
2021/09/10 10:32:48;;;;;;;12.10;9.18;;;21.20;99.90;;;;;;5006365;28;20048;-82
2021/09/10 10:35:18;;;;;;;14.35;9.07;;;21.20;99.90;;;;;;5011490;28;20026;-80
2021/09/10 10:38:12;;;;;;;13.38;9.35;;;21.40;99.90;;;;;;5015812;28;20029;-80
2021/09/10 10:40:54;;;;;;;11.60;10.15;;;21.40;99.90;;;;;;5010321;28;20084;-84
2021/09/10 10:43:22;;;;;;;13.23;8.77;;;21.20;99.90;;;;;;5023570;28;20032;-81
2021/09/10 10:45:48;;;;;;;9.77;8.77;;;21.10;99.90;;;;;;5021317;28;20030;-81
2021/09/10 10:48:32;;;;;;;12.18;9.90;;;21.10;99.90;;;;;;5015390;28;20080;-84
2021/09/10 10:51:24;;;;;;;11.82;9.40;;;21.10;99.90;;;;;;5010352;28;20030;-82
2021/09/10 10:53:52;;;;;;;11.57;9.45;;;21.30;99.90;;;;;;5010714;28;20054;-85
2021/09/10 10:56:21;;;;;;;11.95;8.57;;;21.40;99.90;;;;;;5013786;28;20033;-84
2021/09/10 10:59:21;;;;;;;22.23;9.70;;;21.40;99.90;;;;;;5013959;28;20052;-83
2021/09/10 11:02:15;;;;;;;11.43;9.65;;;21.50;99.90;;;;;;5012203;28;20022;-80
2021/09/10 11:04:41;;;;;;;12.55;10.20;;;21.50;99.90;;;;;;5015630;28;20463;-83
2021/09/10 11:07:08;;;;;;;10.38;9.27;;;21.40;99.90;;;;;;5008474;28;20022;-83
2021/09/10 11:09:34;;;;;;;12.68;9.40;;;21.40;99.90;;;;;;5009963;28;20046;-82
2021/09/10 11:12:00;;;;;;;11.60;9.23;;;21.50;99.90;;;;;;5011542;28;20037;-83
2021/09/10 11:14:30;;;;;;;11.68;8.85;;;21.60;99.90;;;;;;5007615;28;20518;-83
2021/09/10 11:17:12;;;;;;;11.98;9.63;;;21.60;99.90;;;;;;5013757;28;20026;-84
2021/09/10 11:19:38;;;;;;;12.07;8.65;;;21.80;99.90;;;;;;5011924;28;20019;-83
2021/09/10 11:22:04;;;;;;;9.52;7.53;;;22.40;99.90;;;;;;5016959;28;20033;-82
2021/09/10 11:24:30;;;;;;;10.45;7.35;;;23.40;99.90;;;;;;4991272;28;20058;-81
2021/09/10 11:26:56;;;;;;;8.57;7.07;;;24.10;99.90;;;;;;5006949;28;20595;-82
2021/09/10 11:29:21;;;;;;;10.75;7.25;;;24.20;99.90;;;;;;5037295;28;20029;-82
2021/09/10 11:31:47;;;;;;;11.23;7.15;;;24.40;99.90;;;;;;5018516;28;20039;-82
2021/09/10 11:34:35;;;;;;;11.68;7.53;;;24.70;99.90;;;;;;5013861;28;20029;-82
2021/09/10 11:37:04;;;;;;;8.65;7.55;;;24.50;99.90;;;;;;5015846;28;20037;-82
2021/09/10 11:39:30;;;;;;;10.05;7.07;;;23.80;99.90;;;;;;5012258;28;20032;-82
2021/09/10 11:41:56;;;;;;;11.02;7.35;;;23.70;99.90;;;;;;5014771;28;20036;-81
2021/09/10 11:44:22;;;;;;;11.55;7.35;;;23.70;99.90;;;;;;5014069;28;20022;-82
2021/09/10 11:46:48;;;;;;;8.70;7.80;;;23.40;99.90;;;;;;5012020;28;20048;-83
2021/09/10 11:49:14;;;;;;;7.80;7.00;;;23.20;99.90;;;;;;5012173;28;20121;-82
2021/09/10 11:51:43;;;;;;;11.00;7.38;;;23.00;99.90;;;;;;5019933;28;20025;-83
2021/09/10 11:54:15;;;;;;;9.30;7.05;;;22.80;99.90;;;;;;5018877;28;20049;-83
2021/09/10 11:56:43;;;;;;;8.32;6.53;;;22.80;99.90;;;;;;5016601;28;20661;-83
2021/09/10 11:59:16;;;;;;;10.18;6.68;;;22.70;99.90;;;;;;5006820;28;20048;-81
2021/09/10 12:01:43;;;;;;;12.90;7.07;;;22.70;99.90;;;;;;5011565;28;20022;-83
2021/09/10 12:04:10;;;;;;;9.88;6.18;;;22.80;99.90;;;;;;5011631;28;20171;-83
2021/09/10 12:06:50;;;;;;;8.18;6.53;;;23.00;99.90;;;;;;5018485;28;20112;-81
2021/09/10 12:09:29;;;;;;;7.75;6.28;;;23.10;99.90;;;;;;5014929;28;20570;-81
2021/09/10 12:12:14;;;;;;;8.52;5.85;;;23.10;99.90;;;;;;5013690;28;20092;-85
2021/09/10 12:14:52;;;;;;;8.38;5.72;;;23.00;99.90;;;;;;5006667;28;20041;-87
2021/09/10 12:17:24;;;;;;;10.80;6.10;;;22.90;99.90;;;;;;5000854;28;20117;-79
2021/09/10 12:20:14;;;;;;;18.67;5.13;;;22.90;99.90;;;;;;5001218;28;20041;-79
2021/09/10 12:22:49;;;;;;;6.70;5.32;;;23.30;99.90;;;;;;5007291;28;20056;-80
2021/09/10 12:25:20;;;;;;;7.28;5.43;;;23.30;99.90;;;;;;5012049;28;20026;-80
2021/09/10 12:27:47;;;;;;;7.60;5.28;;;23.30;99.90;;;;;;5005697;28;20474;-79
2021/09/10 12:30:14;;;;;;;6.80;5.50;;;23.30;99.90;;;;;;5012732;28;20029;-80
2021/09/10 12:32:40;;;;;;;6.93;5.57;;;23.30;99.90;;;;;;5010343;28;20044;-80
2021/09/10 12:35:06;;;;;;;6.25;5.47;;;23.10;99.90;;;;;;5013156;28;20030;-80
2021/09/10 12:37:32;;;;;;;9.85;6.00;;;23.20;99.90;;;;;;5011902;28;20094;-80